首页
METAR-TAF:

METAR-TAF

机场 :

Ashe County Airport

West Jefferson, 北卡罗来纳州, 美国

纬度: 36-26N, 经度: 081-25W, 海拔: 969米

当前天气观测

该预报发布于11分钟前的20:10 UTC
风速3节,风向东转东北
温度 3°C
湿度 65%
气压 1026 hPa
能見度: 16.1公里
阴天层高于2400英尺

METAR: KGEV 142010Z AUTO 07003KT 10SM OVC024 03/M03 A3031 RMK AO2 T00271034

时间: 15:21 (20:21 UTC)


TAF: 丢失

超过4000个机场的气象观测和天气预报(METAR&TAF报告)。

可查询的气象台以黄色和红色小点在地图上表示。

将鼠标移到小点上方,可查看气象台名称。

然后点击查看天气观测和预报。

如需切换地图:点击带黑十字的绿色按钮放大地图;点击带横线的绿色按钮缩小地图;或者点击绿色箭头查看邻近地区的地图。


METAR-TAF: